createdAt,value
2018-11-23T00:02:38.446Z,17.10
2018-11-23T00:05:24.834Z,15.43
2018-11-23T00:08:11.020Z,14.83
2018-11-23T00:10:47.021Z,14.00
2018-11-23T00:13:22.621Z,15.03
2018-11-23T00:15:55.618Z,14.93
2018-11-23T00:18:27.591Z,14.90
2018-11-23T00:20:59.120Z,15.47
2018-11-23T00:23:28.606Z,15.50
2018-11-23T00:26:03.292Z,15.30
2018-11-23T00:28:35.827Z,15.87
2018-11-23T00:31:05.778Z,13.40
2018-11-23T00:33:40.322Z,16.27
2018-11-23T00:36:08.859Z,15.03
2018-11-23T00:38:41.245Z,15.73
2018-11-23T00:41:09.943Z,15.57
2018-11-23T00:43:38.547Z,16.63
2018-11-23T00:46:12.843Z,15.87
2018-11-23T00:48:51.978Z,16.47
2018-11-23T00:51:41.402Z,15.80
2018-11-23T00:54:10.192Z,15.40
2018-11-23T00:56:46.155Z,15.50
2018-11-23T00:59:28.031Z,16.33
2018-11-23T01:02:05.815Z,15.37
2018-11-23T01:04:36.189Z,16.40
2018-11-23T01:07:25.151Z,16.83
2018-11-23T01:09:54.782Z,15.17
2018-11-23T01:12:26.485Z,16.43
2018-11-23T01:15:00.531Z,15.27
2018-11-23T01:17:42.590Z,15.83
2018-11-23T01:20:18.087Z,15.80
2018-11-23T01:22:48.345Z,15.83
2018-11-23T01:25:23.654Z,14.60
2018-11-23T01:27:53.364Z,14.77
2018-11-23T01:30:25.422Z,15.00
2018-11-23T01:32:59.519Z,15.27
2018-11-23T01:35:29.997Z,14.57
2018-11-23T01:37:58.641Z,15.00
2018-11-23T01:40:29.622Z,15.07
2018-11-23T01:43:08.548Z,14.70
2018-11-23T01:45:58.186Z,15.20
2018-11-23T01:48:30.906Z,15.53
2018-11-23T01:51:01.387Z,14.63
2018-11-23T01:53:46.043Z,14.57
2018-11-23T01:56:26.064Z,13.77
2018-11-23T01:58:56.725Z,14.80
2018-11-23T02:01:26.576Z,14.07
2018-11-23T02:04:07.020Z,14.77
2018-11-23T02:06:39.099Z,15.40
2018-11-23T02:09:08.344Z,14.73
2018-11-23T02:11:38.011Z,13.63
2018-11-23T02:14:06.282Z,15.23
2018-11-23T02:16:41.358Z,15.07
2018-11-23T02:19:11.942Z,14.00
2018-11-23T02:21:40.644Z,15.23
2018-11-23T02:24:09.290Z,13.30
2018-11-23T02:26:39.064Z,13.70
2018-11-23T02:29:13.380Z,13.80
2018-11-23T02:31:43.131Z,15.23
2018-11-23T02:34:11.850Z,14.73
2018-11-23T02:36:40.568Z,15.00
2018-11-23T02:39:14.520Z,14.67
2018-11-23T02:41:43.230Z,14.37
2018-11-23T02:44:17.793Z,14.47
2018-11-23T02:46:46.334Z,13.40
2018-11-23T02:49:15.008Z,14.27
2018-11-23T02:51:43.787Z,13.43
2018-11-23T02:54:12.359Z,14.07
2018-11-23T02:56:44.379Z,13.90
2018-11-23T02:59:23.925Z,13.47
2018-11-23T03:01:59.211Z,14.53
2018-11-23T03:04:39.632Z,13.90
2018-11-23T03:07:10.487Z,13.60
2018-11-23T03:09:46.905Z,13.37
2018-11-23T03:12:16.603Z,13.10
2018-11-23T03:14:45.322Z,12.73
2018-11-23T03:17:17.343Z,12.10
2018-11-23T03:19:46.401Z,13.43
2018-11-23T03:22:15.047Z,11.77
2018-11-23T03:24:43.707Z,12.47
2018-11-23T03:27:12.651Z,12.83
2018-11-23T03:29:42.337Z,13.30
2018-11-23T03:32:11.000Z,12.13
2018-11-23T03:34:39.799Z,13.10
2018-11-23T03:37:09.611Z,13.17
2018-11-23T03:39:39.131Z,12.60
2018-11-23T03:42:07.881Z,12.90
2018-11-23T03:44:38.612Z,12.70
2018-11-23T03:47:11.371Z,12.60
2018-11-23T03:49:40.016Z,13.27
2018-11-23T03:52:08.695Z,13.27
2018-11-23T03:54:37.373Z,12.50
2018-11-23T03:57:06.116Z,12.70
2018-11-23T03:59:34.755Z,12.77
2018-11-23T04:02:03.469Z,13.90
2018-11-23T04:04:34.203Z,12.57
2018-11-23T04:07:10.013Z,12.47
2018-11-23T04:09:39.221Z,13.53
2018-11-23T04:12:13.023Z,13.67
2018-11-23T04:14:50.053Z,12.60
2018-11-23T04:17:19.005Z,12.40
2018-11-23T04:19:49.660Z,12.53
2018-11-23T04:22:29.560Z,13.07
2018-11-23T04:24:59.255Z,13.67
2018-11-23T04:27:29.013Z,13.17
2018-11-23T04:29:59.542Z,12.20
2018-11-23T04:32:33.574Z,12.80
2018-11-23T04:35:02.283Z,14.03
2018-11-23T04:37:35.028Z,13.50
2018-11-23T04:40:04.949Z,12.67
2018-11-23T04:42:33.680Z,13.57
2018-11-23T04:45:02.282Z,13.17
2018-11-23T04:47:34.716Z,13.13
2018-11-23T04:50:03.369Z,13.73
2018-11-23T04:52:32.791Z,14.43
2018-11-23T04:55:07.462Z,13.90
2018-11-23T04:57:37.939Z,13.37
2018-11-23T05:00:10.042Z,13.47
2018-11-23T05:02:38.693Z,13.50
2018-11-23T05:05:11.575Z,12.87
2018-11-23T05:07:45.361Z,13.97
2018-11-23T05:10:17.156Z,13.83
2018-11-23T05:12:47.862Z,13.80
2018-11-23T05:15:21.026Z,13.50
2018-11-23T05:17:50.935Z,13.93
2018-11-23T05:20:19.660Z,12.60
2018-11-23T05:22:52.895Z,12.63
2018-11-23T05:25:27.801Z,13.93
2018-11-23T05:28:04.299Z,12.97
2018-11-23T05:30:33.159Z,13.33
2018-11-23T05:33:05.270Z,13.20
2018-11-23T05:35:39.341Z,13.40
2018-11-23T05:38:13.578Z,13.10
2018-11-23T05:40:48.579Z,12.20
2018-11-23T05:43:29.720Z,13.80
2018-11-23T05:45:59.283Z,13.90
2018-11-23T05:48:31.315Z,14.53
2018-11-23T05:50:59.921Z,14.67
2018-11-23T05:53:28.610Z,13.13
2018-11-23T05:55:57.326Z,12.63
2018-11-23T05:58:26.023Z,13.23
2018-11-23T06:00:54.641Z,13.50
2018-11-23T06:03:29.765Z,13.70
2018-11-23T06:06:01.989Z,12.83
2018-11-23T06:08:30.790Z,13.50
2018-11-23T06:10:59.990Z,12.40
2018-11-23T06:13:29.798Z,13.90
2018-11-23T06:16:04.217Z,13.63
2018-11-23T06:18:34.176Z,13.87
2018-11-23T06:21:03.790Z,13.40
2018-11-23T06:23:32.455Z,13.77
2018-11-23T06:26:15.796Z,13.87
2018-11-23T06:28:52.686Z,13.30
2018-11-23T06:31:25.360Z,13.60
2018-11-23T06:33:58.160Z,13.90
2018-11-23T06:36:29.882Z,13.47
2018-11-23T06:39:02.759Z,13.00
2018-11-23T06:41:31.638Z,13.77
2018-11-23T06:44:00.622Z,13.63
2018-11-23T06:46:29.278Z,14.20
2018-11-23T06:48:57.938Z,13.13
2018-11-23T06:51:26.603Z,14.23
2018-11-23T06:53:55.471Z,13.43
2018-11-23T06:56:25.255Z,14.53
2018-11-23T06:59:00.068Z,14.17
2018-11-23T07:01:28.740Z,13.77
2018-11-23T07:03:57.434Z,13.87
2018-11-23T07:06:25.971Z,14.30
2018-11-23T07:09:00.571Z,14.03
2018-11-23T07:11:29.088Z,14.10
2018-11-23T07:16:55.477Z,13.87
2018-11-23T07:19:24.755Z,12.87
2018-11-23T07:22:00.541Z,14.30
2018-11-23T07:24:34.882Z,13.57
2018-11-23T07:27:03.506Z,14.57
2018-11-23T07:29:32.067Z,13.77
2018-11-23T07:32:00.729Z,13.60
2018-11-23T07:34:33.141Z,14.73
2018-11-23T07:37:02.846Z,13.47
2018-11-23T07:39:43.851Z,13.87
2018-11-23T07:42:26.571Z,13.90
2018-11-23T07:44:56.146Z,12.90
2018-11-23T07:47:34.268Z,14.33
2018-11-23T07:50:03.882Z,13.03
2018-11-23T07:52:37.462Z,13.80
2018-11-23T07:55:17.900Z,14.57
2018-11-23T07:57:52.953Z,14.20
2018-11-23T08:00:27.908Z,13.07
2018-11-23T08:02:57.634Z,14.57
2018-11-23T08:05:26.282Z,13.90
2018-11-23T08:07:58.352Z,13.63
2018-11-23T08:10:26.148Z,15.00
2018-11-23T08:13:00.727Z,13.67
2018-11-23T08:15:33.222Z,13.17
2018-11-23T08:18:02.898Z,14.90
2018-11-23T08:20:31.532Z,13.10
2018-11-23T08:23:01.042Z,13.37
2018-11-23T08:25:42.380Z,14.77
2018-11-23T08:28:17.376Z,14.07
2018-11-23T08:30:57.986Z,15.17
2018-11-23T08:33:32.755Z,14.77
2018-11-23T08:36:08.444Z,13.30
2018-11-23T08:38:43.633Z,13.90
2018-11-23T08:41:18.489Z,15.00
2018-11-23T08:43:59.628Z,15.23
2018-11-23T08:46:31.356Z,15.50
2018-11-23T08:48:59.923Z,14.80
2018-11-23T08:51:29.405Z,15.33
2018-11-23T08:54:03.607Z,15.50
2018-11-23T08:56:35.807Z,15.93
2018-11-23T08:59:05.473Z,14.77
2018-11-23T09:01:44.711Z,11.83
2018-11-23T09:04:16.701Z,15.83
2018-11-23T09:06:46.197Z,16.60
2018-11-23T09:09:22.529Z,14.30
2018-11-23T09:12:04.468Z,16.47
2018-11-23T09:20:39.085Z,14.70
2018-11-23T09:23:08.925Z,15.17
2018-11-23T09:25:37.537Z,15.73
2018-11-23T09:28:06.312Z,16.17
2018-11-23T09:30:34.908Z,14.83
2018-11-23T09:33:03.667Z,15.40
2018-11-23T09:35:32.291Z,15.53
2018-11-23T09:38:01.921Z,15.73
2018-11-23T09:40:31.799Z,18.00
2018-11-23T09:43:00.419Z,14.50
2018-11-23T09:45:30.523Z,16.73
2018-11-23T09:48:07.351Z,16.40
2018-11-23T09:50:41.485Z,17.00
2018-11-23T09:53:22.474Z,16.60
2018-11-23T09:55:57.648Z,16.80
2018-11-23T09:58:33.283Z,17.07
2018-11-23T10:01:02.234Z,17.07
2018-11-23T10:03:33.117Z,16.47
2018-11-23T10:06:07.457Z,16.33
2018-11-23T10:08:38.038Z,16.17
2018-11-23T10:11:06.836Z,16.70
2018-11-23T10:13:35.514Z,17.70
2018-11-23T10:16:04.109Z,16.73
2018-11-23T10:18:33.740Z,16.37
2018-11-23T10:21:09.526Z,17.57
2018-11-23T10:23:40.452Z,15.53
2018-11-23T10:26:09.148Z,16.07
2018-11-23T10:28:39.064Z,16.10
2018-11-23T10:31:07.776Z,16.50
2018-11-23T10:33:44.388Z,16.33
2018-11-23T10:36:18.743Z,17.57
2018-11-23T10:38:53.746Z,15.80
2018-11-23T10:41:26.688Z,16.43
2018-11-23T10:44:01.528Z,15.27
2018-11-23T10:46:31.414Z,15.90
2018-11-23T10:49:00.032Z,16.93
2018-11-23T10:51:34.813Z,15.53
2018-11-23T10:54:04.587Z,16.90
2018-11-23T10:56:34.378Z,15.43
2018-11-23T10:59:03.070Z,16.17
2018-11-23T11:01:37.580Z,16.67
2018-11-23T11:04:17.367Z,15.57
2018-11-23T11:06:50.301Z,15.70
2018-11-23T11:09:19.837Z,15.37
2018-11-23T11:11:48.397Z,16.40
2018-11-23T11:14:20.209Z,15.00
2018-11-23T11:16:54.074Z,15.83
2018-11-23T11:19:24.995Z,16.67
2018-11-23T11:21:54.699Z,15.27
2018-11-23T11:24:29.263Z,16.73
2018-11-23T11:27:07.841Z,15.67
2018-11-23T11:29:40.363Z,14.30
2018-11-23T11:32:09.901Z,15.10
2018-11-23T11:34:38.695Z,14.57
2018-11-23T11:37:07.279Z,14.83
2018-11-23T11:39:36.076Z,14.47
2018-11-23T11:42:11.127Z,15.10
2018-11-23T11:44:45.307Z,14.77
2018-11-23T11:47:17.291Z,15.67
2018-11-23T11:49:46.013Z,15.33
2018-11-23T11:52:14.651Z,15.67
2018-11-23T11:54:48.680Z,15.17
2018-11-23T11:57:17.418Z,16.20
2018-11-23T11:59:50.263Z,16.00
2018-11-23T12:02:20.111Z,15.83
2018-11-23T12:04:48.735Z,15.93
2018-11-23T12:07:25.380Z,16.70
2018-11-23T12:09:55.142Z,16.90
2018-11-23T12:12:24.363Z,15.13
2018-11-23T12:14:54.945Z,14.93
2018-11-23T12:17:29.593Z,15.70
2018-11-23T12:20:00.127Z,15.20
2018-11-23T12:22:28.866Z,16.17
2018-11-23T12:24:57.490Z,15.93
2018-11-23T12:27:29.491Z,16.00
2018-11-23T12:30:03.412Z,15.50
2018-11-23T12:32:35.302Z,14.83
2018-11-23T12:35:03.995Z,14.43
2018-11-23T12:37:32.657Z,15.30
2018-11-23T12:40:01.526Z,14.90
2018-11-23T12:42:30.152Z,16.17
2018-11-23T12:44:58.958Z,15.00
2018-11-23T12:47:32.576Z,15.87
2018-11-23T12:50:01.114Z,16.27
2018-11-23T12:52:29.820Z,16.53
2018-11-23T12:54:58.376Z,16.17
2018-11-23T12:57:37.140Z,15.53
2018-11-23T13:00:19.613Z,14.77
2018-11-23T13:02:49.971Z,15.33
2018-11-23T13:05:30.642Z,14.00
2018-11-23T13:08:00.617Z,14.43
2018-11-23T13:10:30.830Z,14.47
2018-11-23T13:13:00.162Z,15.33
2018-11-23T13:15:29.798Z,14.07
2018-11-23T13:17:59.142Z,15.47
2018-11-23T13:20:28.025Z,15.90
2018-11-23T13:22:56.668Z,17.13
2018-11-23T13:25:26.962Z,15.17
2018-11-23T13:27:55.767Z,15.80
2018-11-23T13:30:26.863Z,15.27
2018-11-23T13:32:55.515Z,14.50
2018-11-23T13:35:27.509Z,15.27
2018-11-23T13:37:56.217Z,15.20
2018-11-23T13:40:25.822Z,15.57
2018-11-23T13:43:12.102Z,14.70
2018-11-23T13:45:52.463Z,15.20
2018-11-23T13:48:21.293Z,15.93
2018-11-23T13:50:55.448Z,16.57
2018-11-23T13:53:24.317Z,16.07
2018-11-23T13:55:53.383Z,17.40
2018-11-23T13:58:22.277Z,17.03
2018-11-23T14:01:09.206Z,17.63
2018-11-23T14:03:38.813Z,18.40
2018-11-23T14:06:09.479Z,17.70
2018-11-23T14:08:39.066Z,17.13
2018-11-23T14:11:07.671Z,17.70
2018-11-23T14:13:48.208Z,18.50
2018-11-23T14:16:22.477Z,17.77
2018-11-23T14:18:56.898Z,17.57
2018-11-23T14:21:29.051Z,16.73
2018-11-23T14:24:04.175Z,17.07
2018-11-23T14:26:32.964Z,17.07
2018-11-23T14:29:05.467Z,16.77
2018-11-23T14:31:44.885Z,16.17
2018-11-23T14:34:26.800Z,17.03
2018-11-23T14:37:00.507Z,15.93
2018-11-23T14:39:31.325Z,15.73
2018-11-23T14:42:19.540Z,15.60
2018-11-23T14:50:43.654Z,15.57
2018-11-23T14:53:12.485Z,16.20
2018-11-23T14:55:41.254Z,16.63
2018-11-23T14:58:11.072Z,17.07
2018-11-23T15:00:40.901Z,16.47
2018-11-23T15:03:10.728Z,16.33
2018-11-23T15:05:45.244Z,15.93
2018-11-23T15:08:18.538Z,15.70
2018-11-23T15:10:47.900Z,16.93
2018-11-23T15:13:22.276Z,18.60
2018-11-23T15:15:52.042Z,18.87
2018-11-23T15:18:20.650Z,19.70
2018-11-23T15:20:49.424Z,18.80
2018-11-23T15:23:24.707Z,17.73
2018-11-23T15:26:01.728Z,18.33
2018-11-23T15:28:36.013Z,17.43
2018-11-23T15:31:13.756Z,17.40
2018-11-23T15:33:48.573Z,16.97
2018-11-23T15:36:22.881Z,17.47
2018-11-23T15:39:03.169Z,18.53
2018-11-23T15:41:34.074Z,18.13
2018-11-23T15:44:08.403Z,17.47
2018-11-23T15:46:37.153Z,17.77
2018-11-23T15:49:10.788Z,18.83
2018-11-23T15:51:50.783Z,15.87
2018-11-23T15:54:21.423Z,17.17
2018-11-23T15:56:51.340Z,16.97
2018-11-23T15:59:19.935Z,16.27
2018-11-23T16:01:48.611Z,16.20
2018-11-23T16:04:17.571Z,15.43
2018-11-23T16:06:52.705Z,17.37
2018-11-23T16:09:24.979Z,17.77
2018-11-23T16:11:53.593Z,17.83
2018-11-23T16:14:23.155Z,16.60
2018-11-23T16:16:53.927Z,17.90
2018-11-23T16:19:23.303Z,17.40
2018-11-23T16:21:52.035Z,16.23
2018-11-23T16:24:24.011Z,17.73
2018-11-23T16:26:56.440Z,17.13
2018-11-23T16:29:35.480Z,18.43
2018-11-23T16:32:04.119Z,18.37
2018-11-23T16:34:34.059Z,18.17
2018-11-23T16:37:02.672Z,18.00
2018-11-23T16:39:32.359Z,16.53
2018-11-23T16:42:11.541Z,16.57
2018-11-23T16:44:43.794Z,17.67
2018-11-23T16:47:12.773Z,16.20
2018-11-23T16:49:46.008Z,17.27
2018-11-23T16:52:30.595Z,17.13
2018-11-23T16:55:02.632Z,15.90
2018-11-23T16:57:35.022Z,15.60
2018-11-23T17:00:10.673Z,17.53
2018-11-23T17:02:41.506Z,16.93
2018-11-23T17:05:10.936Z,16.80
2018-11-23T17:07:49.960Z,17.83
2018-11-23T17:10:19.255Z,16.57
2018-11-23T17:12:52.783Z,16.67
2018-11-23T17:15:26.546Z,16.70
2018-11-23T17:17:59.600Z,16.87
2018-11-23T17:20:35.336Z,17.53
2018-11-23T17:23:05.201Z,17.27
2018-11-23T17:25:34.903Z,16.87
2018-11-23T17:28:06.365Z,15.80
2018-11-23T17:30:36.344Z,16.63
2018-11-23T17:33:05.180Z,16.70
2018-11-23T17:35:35.825Z,17.13
2018-11-23T17:38:04.377Z,16.90
2018-11-23T17:40:35.771Z,17.17
2018-11-23T17:43:04.205Z,16.93
2018-11-23T17:45:36.435Z,16.57
2018-11-23T17:48:07.036Z,17.73
2018-11-23T17:50:36.553Z,17.47
2018-11-23T17:53:06.003Z,17.67
2018-11-23T17:55:37.867Z,16.97
2018-11-23T17:58:06.866Z,17.20
2018-11-23T18:00:39.061Z,17.67
2018-11-23T18:03:04.818Z,18.00
2018-11-23T18:05:34.997Z,18.43
2018-11-23T18:08:04.394Z,17.03
2018-11-23T18:10:41.350Z,17.33
2018-11-23T18:13:15.641Z,18.43
2018-11-23T18:15:44.246Z,17.60
2018-11-23T18:18:12.838Z,17.47
2018-11-23T18:20:45.211Z,17.47
2018-11-23T18:23:13.873Z,17.77
2018-11-23T18:25:42.561Z,18.27
2018-11-23T18:28:11.239Z,17.77
2018-11-23T18:30:39.964Z,19.70
2018-11-23T18:33:14.219Z,17.13
2018-11-23T18:35:45.183Z,17.37
2018-11-23T18:38:13.899Z,17.30
2018-11-23T18:40:42.454Z,16.83
2018-11-23T18:43:17.102Z,16.87
2018-11-23T18:45:46.944Z,17.30
2018-11-23T18:48:15.743Z,17.47
2018-11-23T18:50:44.426Z,18.00
2018-11-23T18:53:15.102Z,17.27
2018-11-23T18:55:44.186Z,17.80
2018-11-23T18:58:12.848Z,17.00
2018-11-23T19:00:41.521Z,17.03
2018-11-23T19:03:10.172Z,17.33
2018-11-23T19:05:42.160Z,17.17
2018-11-23T19:08:10.720Z,17.00
2018-11-23T19:10:45.010Z,16.43
2018-11-23T19:13:17.302Z,17.07
2018-11-23T19:15:58.572Z,16.93
2018-11-23T19:18:33.512Z,17.83
2018-11-23T19:21:05.970Z,17.37
2018-11-23T19:23:40.624Z,17.07
2018-11-23T19:26:09.229Z,17.30
2018-11-23T19:28:38.111Z,18.37
2018-11-23T19:31:06.636Z,17.70
2018-11-23T19:33:35.284Z,17.67
2018-11-23T19:36:06.377Z,17.33
2018-11-23T19:38:35.128Z,17.73
2018-11-23T19:41:04.661Z,18.40
2018-11-23T19:43:34.153Z,18.27
2018-11-23T19:46:13.675Z,18.77
2018-11-23T19:48:45.863Z,17.20
2018-11-23T19:51:14.529Z,19.23
2018-11-23T19:53:44.048Z,16.30
2018-11-23T19:56:18.276Z,16.53
2018-11-23T19:58:48.759Z,17.17
2018-11-23T20:01:19.593Z,17.33
2018-11-23T20:03:50.275Z,17.53
2018-11-23T20:06:22.632Z,17.40
2018-11-23T20:08:52.124Z,17.10
2018-11-23T20:11:20.892Z,16.77
2018-11-23T20:13:49.477Z,17.50
2018-11-23T20:16:18.287Z,16.47
2018-11-23T20:18:46.835Z,16.13
2018-11-23T20:21:15.631Z,16.53
2018-11-23T20:23:44.257Z,17.57
2018-11-23T20:26:12.947Z,16.43
2018-11-23T20:28:47.962Z,17.80
2018-11-23T20:31:23.197Z,17.73
2018-11-23T20:33:52.188Z,16.63
2018-11-23T20:36:33.502Z,16.47
2018-11-23T20:39:08.501Z,17.20
2018-11-23T20:41:48.875Z,16.40
2018-11-23T20:44:23.072Z,17.77
2018-11-23T20:46:51.569Z,17.70
2018-11-23T20:49:29.511Z,17.23
2018-11-23T20:52:00.411Z,15.60
2018-11-23T20:54:32.447Z,17.00
2018-11-23T20:57:01.145Z,14.87
2018-11-23T20:59:38.804Z,15.17
2018-11-23T21:02:03.896Z,15.93
2018-11-23T21:04:32.508Z,15.17
2018-11-23T21:07:01.996Z,17.30
2018-11-23T21:09:31.152Z,17.57
2018-11-23T21:12:01.351Z,16.60
2018-11-23T21:14:30.090Z,16.53
2018-11-23T21:16:58.727Z,16.73
2018-11-23T21:19:30.369Z,16.70
2018-11-23T21:22:04.926Z,16.50
2018-11-23T21:24:33.498Z,15.83
2018-11-23T21:27:02.984Z,15.13
2018-11-23T21:29:32.529Z,15.70
2018-11-23T21:32:01.131Z,15.97
2018-11-23T21:34:30.642Z,15.63
2018-11-23T21:37:00.147Z,15.17
2018-11-23T21:39:29.653Z,15.30
2018-11-23T21:41:58.513Z,15.07
2018-11-23T21:44:26.972Z,15.23
2018-11-23T21:46:58.631Z,15.50
2018-11-23T21:49:33.951Z,16.27
2018-11-23T21:52:03.080Z,16.10
2018-11-23T21:54:31.598Z,17.43
2018-11-23T21:57:06.638Z,15.43
2018-11-23T21:59:35.443Z,17.00
2018-11-23T22:02:07.187Z,15.50
2018-11-23T22:04:37.519Z,16.23
2018-11-23T22:07:06.561Z,17.33
2018-11-23T22:09:39.864Z,16.73
2018-11-23T22:12:09.762Z,16.20
2018-11-23T22:14:38.426Z,14.97
2018-11-23T22:17:07.931Z,16.73
2018-11-23T22:19:36.594Z,16.10
2018-11-23T22:22:06.759Z,15.03
2018-11-23T22:24:38.930Z,15.30
2018-11-23T22:27:14.705Z,15.47
2018-11-23T22:29:46.935Z,14.93
2018-11-23T22:32:15.627Z,14.83
2018-11-23T22:34:44.239Z,15.30
2018-11-23T22:37:13.841Z,15.87
2018-11-23T22:39:42.449Z,16.00
2018-11-23T22:42:11.353Z,15.37
2018-11-23T22:44:52.481Z,15.17
2018-11-23T22:47:21.379Z,15.73
2018-11-23T22:49:51.356Z,15.97
2018-11-23T22:52:23.616Z,15.40
2018-11-23T22:54:57.791Z,15.73
2018-11-23T22:57:29.898Z,14.87
2018-11-23T22:59:58.464Z,15.63
2018-11-23T23:02:27.967Z,14.73
2018-11-23T23:04:56.671Z,16.30
2018-11-23T23:07:25.362Z,16.03
2018-11-23T23:09:54.071Z,14.97
2018-11-23T23:12:22.740Z,13.43
2018-11-23T23:14:56.956Z,14.90
2018-11-23T23:17:25.436Z,14.07
2018-11-23T23:19:57.910Z,14.67
2018-11-23T23:22:26.616Z,15.33
2018-11-23T23:24:55.539Z,14.93
2018-11-23T23:27:25.236Z,15.00
2018-11-23T23:29:53.864Z,14.53
2018-11-23T23:32:29.737Z,15.43
2018-11-23T23:35:01.935Z,15.13
2018-11-23T23:37:36.167Z,15.17
2018-11-23T23:40:10.092Z,15.50
2018-11-23T23:42:39.825Z,15.47
2018-11-23T23:45:12.255Z,13.90
2018-11-23T23:47:44.135Z,14.60
2018-11-23T23:50:18.799Z,13.97
2018-11-23T23:52:56.949Z,14.10
2018-11-23T23:55:32.442Z,13.20
2018-11-23T23:58:06.942Z,13.17
